Íslenskir flugvellir

Veldu flugvelli í þeirri röð sem þeir eiga að birtast og styddu á hnappinn

Uppfært síðast 23.07.2019 - kl. 22:29

SIGMET síðustu 6 klst.

Engin SIGMET skeyti bárust síðustu 6 klst.

Keflavík

METAR síðustu 3 klst

TímiSkeyti
2019-07-23 22.00METAR BIKF 232200Z 02005KT CAVOK 14/12 Q1008
2019-07-23 21.30METAR BIKF 232130Z 02007KT CAVOK 14/11 Q1008
2019-07-23 21.00METAR BIKF 232100Z 36008KT CAVOK 14/11 Q1008
2019-07-23 20.30METAR BIKF 232030Z 33009KT CAVOK 14/11 Q1008
2019-07-23 20.00METAR BIKF 232000Z 33010KT CAVOK 14/11 Q1008
2019-07-23 19.30METAR BIKF 231930Z 35008KT CAVOK 15/11 Q1007

TAF

TAFBIKF2019-07-23 22.14Z24000029003KT 9999 FEW010 SCT020 BKN050 TX16/2415Z TN10/2403Z BECMG 2407/2410 04013KT BECMG 2411/2414 FEW020 SCT040

Allur vindur er réttvísandi bæði í Metar og frá sjálfvirkum veðurstöðvum




Aðrir tengdir vefir



Þetta vefsvæði byggir á Eplica